Aviation Digital Data Service (ADDS)

Output produced by METARs form (1851 UTC 26 March 2017)
found at http://aviationweather.gov/adds/metars/
 
KMSS 261737Z 2618/2718 07014KT P6SM OVC070 
     FM270000 08010KT P6SM OVC035 
     FM270300 09009KT 5SM -RA BR OVC030 
     FM270800 09009KT 3SM -RA BR OVC020